createdAt,value
2018-12-26T00:00:07.600Z,12.00
2018-12-26T00:02:34.233Z,13.20
2018-12-26T00:05:00.707Z,13.37
2018-12-26T00:07:27.089Z,13.70
2018-12-26T00:09:53.579Z,13.00
2018-12-26T00:12:19.930Z,12.07
2018-12-26T00:14:46.396Z,11.80
2018-12-26T00:17:14.656Z,12.30
2018-12-26T00:19:41.189Z,12.50
2018-12-26T00:22:07.901Z,13.60
2018-12-26T00:24:34.375Z,12.07
2018-12-26T00:27:00.933Z,12.53
2018-12-26T00:29:27.447Z,12.07
2018-12-26T00:31:53.804Z,12.37
2018-12-26T00:34:20.365Z,11.57
2018-12-26T00:36:46.935Z,11.83
2018-12-26T00:39:13.484Z,12.03
2018-12-26T00:41:39.960Z,13.63
2018-12-26T00:44:06.520Z,11.70
2018-12-26T00:46:32.992Z,12.70
2018-12-26T00:48:59.541Z,13.07
2018-12-26T00:51:26.012Z,12.80
2018-12-26T00:53:52.563Z,13.63
2018-12-26T00:56:19.043Z,12.67
2018-12-26T00:58:45.643Z,12.93
2018-12-26T01:01:12.036Z,13.33
2018-12-26T01:03:38.604Z,13.33
2018-12-26T01:06:05.188Z,12.80
2018-12-26T01:08:31.796Z,13.13
2018-12-26T01:10:58.194Z,12.10
2018-12-26T01:13:24.575Z,12.20
2018-12-26T01:15:51.165Z,12.20
2018-12-26T01:18:17.620Z,13.27
2018-12-26T01:20:44.171Z,12.97
2018-12-26T01:23:10.653Z,12.50
2018-12-26T01:25:37.037Z,11.83
2018-12-26T01:28:03.520Z,12.80
2018-12-26T01:30:29.976Z,11.93
2018-12-26T01:32:56.455Z,11.93
2018-12-26T01:35:24.454Z,12.80
2018-12-26T01:37:50.920Z,12.33
2018-12-26T01:40:17.476Z,13.87
2018-12-26T01:42:43.857Z,13.13
2018-12-26T01:45:10.324Z,12.87
2018-12-26T01:47:36.796Z,11.83
2018-12-26T01:50:04.252Z,13.90
2018-12-26T01:52:30.736Z,13.20
2018-12-26T01:54:57.387Z,13.67
2018-12-26T01:57:23.745Z,11.67
2018-12-26T01:59:50.268Z,13.37
2018-12-26T02:02:16.724Z,12.93
2018-12-26T02:04:43.099Z,12.97
2018-12-26T02:07:09.548Z,12.60
2018-12-26T02:09:36.020Z,11.93
2018-12-26T02:12:02.571Z,12.00
2018-12-26T02:14:28.956Z,12.37
2018-12-26T02:16:55.307Z,12.40
2018-12-26T02:19:21.779Z,12.13
2018-12-26T02:21:48.328Z,12.37
2018-12-26T02:24:14.804Z,12.53
2018-12-26T02:26:41.260Z,13.07
2018-12-26T02:29:07.841Z,12.63
2018-12-26T02:31:34.295Z,13.60
2018-12-26T02:34:00.773Z,13.07
2018-12-26T02:36:27.229Z,13.37
2018-12-26T02:38:53.712Z,12.73
2018-12-26T02:41:20.173Z,13.53
2018-12-26T02:43:46.547Z,13.10
2018-12-26T02:46:12.932Z,13.57
2018-12-26T02:48:39.386Z,13.23
2018-12-26T02:51:05.971Z,13.50
2018-12-26T02:53:32.417Z,13.23
2018-12-26T02:55:58.801Z,14.80
2018-12-26T02:58:25.264Z,13.50
2018-12-26T03:00:51.843Z,14.23
2018-12-26T03:03:18.289Z,13.43
2018-12-26T03:05:44.660Z,14.40
2018-12-26T03:08:11.241Z,14.10
2018-12-26T03:10:38.079Z,13.90
2018-12-26T03:13:04.536Z,15.10
2018-12-26T03:15:30.993Z,14.47
2018-12-26T03:17:57.559Z,12.93
2018-12-26T03:20:24.016Z,12.10
2018-12-26T03:22:50.592Z,14.07
2018-12-26T03:25:17.044Z,12.60
2018-12-26T03:27:43.617Z,13.10
2018-12-26T03:30:10.084Z,13.07
2018-12-26T03:32:36.440Z,12.70
2018-12-26T03:35:03.595Z,12.33
2018-12-26T03:37:30.068Z,12.77
2018-12-26T03:39:56.629Z,12.40
2018-12-26T03:42:23.130Z,13.17
2018-12-26T03:44:49.985Z,14.10
2018-12-26T03:47:16.912Z,13.73
2018-12-26T03:49:43.339Z,13.27
2018-12-26T03:52:09.788Z,13.13
2018-12-26T03:54:36.261Z,13.93
2018-12-26T03:57:06.317Z,13.90
2018-12-26T03:59:31.289Z,13.80
2018-12-26T04:01:57.743Z,13.10
2018-12-26T04:04:24.208Z,14.20
2018-12-26T04:06:50.661Z,14.13
2018-12-26T04:09:17.236Z,14.20
2018-12-26T04:11:43.695Z,12.80
2018-12-26T04:14:10.284Z,14.53
2018-12-26T04:16:36.738Z,14.20
2018-12-26T04:19:03.238Z,14.37
2018-12-26T04:21:29.688Z,14.93
2018-12-26T04:23:56.159Z,15.30
2018-12-26T04:26:22.719Z,14.73
2018-12-26T04:28:49.283Z,15.03
2018-12-26T04:31:15.664Z,16.07
2018-12-26T04:33:42.323Z,15.00
2018-12-26T04:36:08.772Z,14.43
2018-12-26T04:38:35.134Z,14.47
2018-12-26T04:41:01.510Z,15.17
2018-12-26T04:43:27.913Z,14.83
2018-12-26T04:45:56.720Z,15.23
2018-12-26T04:48:23.344Z,16.57
2018-12-26T04:50:49.856Z,14.70
2018-12-26T04:53:16.309Z,15.80
2018-12-26T04:55:42.692Z,14.73
2018-12-26T04:58:09.284Z,15.83
2018-12-26T05:00:35.667Z,16.03
2018-12-26T05:03:02.223Z,15.63
2018-12-26T05:05:28.696Z,15.60
2018-12-26T05:07:55.149Z,15.80
2018-12-26T05:10:21.740Z,15.70
2018-12-26T05:12:48.304Z,14.70
2018-12-26T05:15:14.886Z,15.60
2018-12-26T05:17:41.336Z,15.87
2018-12-26T05:20:07.832Z,16.23
2018-12-26T05:22:34.221Z,15.33
2018-12-26T05:25:00.673Z,15.43
2018-12-26T05:27:34.141Z,15.97
2018-12-26T05:29:55.535Z,15.60
2018-12-26T05:32:22.108Z,14.80
2018-12-26T05:34:48.558Z,15.27
2018-12-26T05:37:15.137Z,15.90
2018-12-26T05:39:41.592Z,15.57
2018-12-26T05:42:08.076Z,16.13
2018-12-26T05:44:34.542Z,16.20
2018-12-26T05:47:00.927Z,15.57
2018-12-26T05:49:27.372Z,15.33
2018-12-26T05:51:53.750Z,17.07
2018-12-26T05:54:20.221Z,16.33
2018-12-26T05:56:46.704Z,16.37
2018-12-26T05:59:13.188Z,16.63
2018-12-26T06:01:39.668Z,20.53
2018-12-26T06:04:06.134Z,24.27
2018-12-26T06:06:32.623Z,33.77
2018-12-26T06:08:59.079Z,32.73
2018-12-26T06:11:25.463Z,25.83
2018-12-26T06:13:51.936Z,22.80
2018-12-26T06:16:18.297Z,19.03
2018-12-26T06:18:44.774Z,17.87
2018-12-26T06:21:11.223Z,16.93
2018-12-26T06:23:37.711Z,20.43
2018-12-26T06:26:04.262Z,19.87
2018-12-26T06:28:30.743Z,18.33
2018-12-26T06:30:57.188Z,19.00
2018-12-26T06:33:23.755Z,17.60
2018-12-26T06:35:50.308Z,18.53
2018-12-26T06:38:16.891Z,18.33
2018-12-26T06:40:43.255Z,18.33
2018-12-26T06:43:09.703Z,18.07
2018-12-26T06:45:36.272Z,17.67
2018-12-26T06:48:02.727Z,17.73
2018-12-26T06:50:29.196Z,18.27
2018-12-26T06:52:55.897Z,17.90
2018-12-26T06:55:22.464Z,18.10
2018-12-26T06:57:48.855Z,19.70
2018-12-26T07:00:15.328Z,18.33
2018-12-26T07:02:41.707Z,19.13
2018-12-26T07:05:08.080Z,17.50
2018-12-26T07:07:34.536Z,17.73
2018-12-26T07:10:00.933Z,17.63
2018-12-26T07:12:27.392Z,16.43
2018-12-26T07:14:53.764Z,17.47
2018-12-26T07:17:20.211Z,19.23
2018-12-26T07:19:46.790Z,17.27
2018-12-26T07:22:13.163Z,16.20
2018-12-26T07:24:39.616Z,16.20
2018-12-26T07:27:05.984Z,17.10
2018-12-26T07:29:32.428Z,18.97
2018-12-26T07:31:58.905Z,17.87
2018-12-26T07:34:25.968Z,17.80
2018-12-26T07:36:52.431Z,16.70
2018-12-26T07:39:18.795Z,17.27
2018-12-26T07:41:45.290Z,16.87
2018-12-26T07:44:11.727Z,17.47
2018-12-26T07:46:38.200Z,16.77
2018-12-26T07:49:04.752Z,16.77
2018-12-26T07:51:31.462Z,16.00
2018-12-26T07:53:57.987Z,17.53
2018-12-26T07:56:24.437Z,17.90
2018-12-26T07:58:50.947Z,18.57
2018-12-26T08:01:17.401Z,16.70
2018-12-26T08:03:43.864Z,16.00
2018-12-26T08:06:10.433Z,16.20
2018-12-26T08:08:36.896Z,16.23
2018-12-26T08:11:03.365Z,15.20
2018-12-26T08:13:29.756Z,15.47
2018-12-26T08:15:56.101Z,15.33
2018-12-26T08:18:22.477Z,16.93
2018-12-26T08:20:48.820Z,17.60
2018-12-26T08:23:15.224Z,15.40
2018-12-26T08:25:41.667Z,16.10
2018-12-26T08:28:08.039Z,15.83
2018-12-26T08:30:34.426Z,16.43
2018-12-26T08:33:01.012Z,14.87
2018-12-26T08:35:27.570Z,15.30
2018-12-26T08:37:54.274Z,13.37
2018-12-26T08:40:20.704Z,14.30
2018-12-26T08:42:47.164Z,13.40
2018-12-26T08:45:13.631Z,14.20
2018-12-26T08:47:40.023Z,13.00
2018-12-26T08:50:08.562Z,14.53
2018-12-26T08:52:35.004Z,14.47
2018-12-26T08:55:01.496Z,13.30
2018-12-26T08:57:28.056Z,13.80
2018-12-26T08:59:55.233Z,13.47
2018-12-26T09:02:21.685Z,12.90
2018-12-26T09:04:48.047Z,13.33
2018-12-26T09:07:14.401Z,13.97
2018-12-26T09:09:40.794Z,14.07
2018-12-26T09:12:07.503Z,12.67
2018-12-26T09:14:33.868Z,12.83
2018-12-26T09:17:00.016Z,12.27
2018-12-26T09:19:26.493Z,12.40
2018-12-26T09:21:52.973Z,11.80
2018-12-26T09:24:19.797Z,10.87
2018-12-26T09:26:46.248Z,12.37
2018-12-26T09:29:12.704Z,12.53
2018-12-26T09:31:39.180Z,11.87
2018-12-26T09:34:05.640Z,12.97
2018-12-26T09:36:32.111Z,12.47
2018-12-26T09:38:58.491Z,12.37
2018-12-26T09:41:24.876Z,12.10
2018-12-26T09:43:51.329Z,14.43
2018-12-26T09:46:17.800Z,21.40
2018-12-26T09:48:44.274Z,16.10
2018-12-26T09:51:10.748Z,14.60
2018-12-26T09:53:37.197Z,12.63
2018-12-26T09:56:03.767Z,12.53
2018-12-26T09:58:30.172Z,12.87
2018-12-26T10:00:56.646Z,13.67
2018-12-26T10:03:23.100Z,12.03
2018-12-26T10:05:49.580Z,11.83
2018-12-26T10:08:16.140Z,13.00
2018-12-26T10:10:42.499Z,11.70
2018-12-26T10:13:08.979Z,11.83
2018-12-26T10:15:35.431Z,11.70
2018-12-26T10:18:01.912Z,12.20
2018-12-26T10:20:28.364Z,11.43
2018-12-26T10:22:54.903Z,11.10
2018-12-26T10:25:21.417Z,10.40
2018-12-26T10:27:47.887Z,10.63
2018-12-26T10:30:14.340Z,9.87
2018-12-26T10:32:40.817Z,9.53
2018-12-26T10:35:07.369Z,9.87
2018-12-26T10:37:33.748Z,10.40
2018-12-26T10:40:00.179Z,9.33
2018-12-26T10:42:26.667Z,8.93
2018-12-26T10:44:53.125Z,9.50
2018-12-26T10:47:19.671Z,8.63
2018-12-26T10:49:46.043Z,9.70
2018-12-26T10:52:12.496Z,8.90
2018-12-26T10:54:38.987Z,9.00
2018-12-26T10:57:05.446Z,9.17
2018-12-26T10:59:31.937Z,8.60
2018-12-26T11:01:58.488Z,7.57
2018-12-26T11:04:25.084Z,8.43
2018-12-26T11:06:51.540Z,8.27
2018-12-26T11:09:18.026Z,8.47
2018-12-26T11:11:44.492Z,8.90
2018-12-26T11:14:10.984Z,8.60
2018-12-26T11:16:37.453Z,7.93
2018-12-26T11:19:04.069Z,8.50
2018-12-26T11:21:30.620Z,8.10
2018-12-26T11:23:57.097Z,8.27
2018-12-26T11:26:23.781Z,7.87
2018-12-26T11:28:50.353Z,8.27
2018-12-26T11:31:16.912Z,8.48
2018-12-26T11:33:43.311Z,8.53
2018-12-26T11:36:09.668Z,8.38
2018-12-26T11:38:36.124Z,8.28
2018-12-26T11:41:02.604Z,7.70
2018-12-26T11:43:29.048Z,7.08
2018-12-26T11:45:55.403Z,7.90
2018-12-26T11:48:21.860Z,7.72
2018-12-26T11:50:48.240Z,7.50
2018-12-26T11:53:14.695Z,6.50
2018-12-26T11:55:41.274Z,6.83
2018-12-26T11:58:07.767Z,6.80
2018-12-26T12:00:34.256Z,6.92
2018-12-26T12:03:00.650Z,6.55
2018-12-26T12:05:27.227Z,6.53
2018-12-26T12:07:53.695Z,6.47
2018-12-26T12:10:20.248Z,6.78
2018-12-26T12:12:46.856Z,6.90
2018-12-26T12:15:13.312Z,7.58
2018-12-26T12:17:39.791Z,7.03
2018-12-26T12:20:07.287Z,6.65
2018-12-26T12:22:33.772Z,7.37
2018-12-26T12:25:00.178Z,8.00
2018-12-26T12:27:26.708Z,8.13
2018-12-26T12:29:53.208Z,7.47
2018-12-26T12:32:19.677Z,7.43
2018-12-26T12:34:46.436Z,7.20
2018-12-26T12:37:12.933Z,7.07
2018-12-26T12:39:39.380Z,7.37
2018-12-26T12:42:05.856Z,7.00
2018-12-26T12:44:32.310Z,5.90
2018-12-26T12:46:58.884Z,4.10
2018-12-26T12:49:25.452Z,5.03
2018-12-26T12:51:52.041Z,4.90
2018-12-26T12:54:18.504Z,4.57
2018-12-26T12:56:44.955Z,4.00
2018-12-26T12:59:11.473Z,4.72
2018-12-26T13:01:37.931Z,4.53
2018-12-26T13:04:04.400Z,3.30
2018-12-26T13:06:30.788Z,4.65
2018-12-26T13:08:57.160Z,4.00
2018-12-26T13:11:23.533Z,4.10
2018-12-26T13:13:50.137Z,3.80
2018-12-26T13:16:16.486Z,4.00
2018-12-26T13:18:42.960Z,3.55
2018-12-26T13:21:09.512Z,3.72
2018-12-26T13:23:35.951Z,4.03
2018-12-26T13:26:02.740Z,3.58
2018-12-26T13:28:29.303Z,3.22
2018-12-26T13:30:55.771Z,4.58
2018-12-26T13:33:24.123Z,4.75
2018-12-26T13:35:50.600Z,4.00
2018-12-26T13:38:17.052Z,3.95
2018-12-26T13:40:43.539Z,4.20
2018-12-26T13:43:10.000Z,5.23
2018-12-26T13:45:36.575Z,6.20
2018-12-26T13:48:03.027Z,5.77
2018-12-26T13:50:29.885Z,5.93
2018-12-26T13:52:56.270Z,5.80
2018-12-26T13:55:22.745Z,6.00
2018-12-26T13:57:49.348Z,5.90
2018-12-26T14:00:15.817Z,5.83
2018-12-26T14:02:42.374Z,5.40
2018-12-26T14:05:08.760Z,5.87
2018-12-26T14:07:35.216Z,6.40
2018-12-26T14:10:01.695Z,7.87
2018-12-26T14:12:28.184Z,5.83
2018-12-26T14:14:54.636Z,6.20
2018-12-26T14:17:21.147Z,6.97
2018-12-26T14:19:47.735Z,7.97
2018-12-26T14:22:14.208Z,6.87
2018-12-26T14:24:40.660Z,7.43
2018-12-26T14:27:07.057Z,5.70
2018-12-26T14:29:33.504Z,5.83
2018-12-26T14:31:59.990Z,6.20
2018-12-26T14:34:26.435Z,5.73
2018-12-26T14:36:52.919Z,5.60
2018-12-26T14:39:19.478Z,5.97
2018-12-26T14:41:45.960Z,5.80
2018-12-26T14:44:12.413Z,5.10
2018-12-26T14:46:38.905Z,5.30
2018-12-26T14:49:06.783Z,4.73
2018-12-26T14:51:33.391Z,4.80
2018-12-26T14:53:59.871Z,4.93
2018-12-26T14:56:26.332Z,4.50
2018-12-26T14:58:52.768Z,5.30
2018-12-26T15:01:19.229Z,5.30
2018-12-26T15:03:45.819Z,4.73
2018-12-26T15:06:12.373Z,8.33
2018-12-26T15:08:38.738Z,9.20
2018-12-26T15:11:05.195Z,10.53
2018-12-26T15:13:31.595Z,11.03
2018-12-26T15:15:58.035Z,11.33
2018-12-26T15:18:24.526Z,11.70
2018-12-26T15:20:51.221Z,10.80
2018-12-26T15:23:17.855Z,10.67
2018-12-26T15:25:44.212Z,10.37
2018-12-26T15:28:10.689Z,11.37
2018-12-26T15:30:37.134Z,11.37
2018-12-26T15:33:03.492Z,11.30
2018-12-26T15:35:29.964Z,10.23
2018-12-26T15:37:56.464Z,11.33
2018-12-26T15:40:23.228Z,11.23
2018-12-26T15:42:49.584Z,11.97
2018-12-26T15:45:16.057Z,11.33
2018-12-26T15:47:42.620Z,10.20
2018-12-26T15:50:09.089Z,12.27
2018-12-26T15:52:35.537Z,13.73
2018-12-26T15:55:01.940Z,12.53
2018-12-26T15:57:28.387Z,11.60
2018-12-26T15:59:55.008Z,11.20
2018-12-26T16:02:21.455Z,11.50
2018-12-26T16:04:47.971Z,11.67
2018-12-26T16:07:14.531Z,11.63
2018-12-26T16:09:40.984Z,12.07
2018-12-26T16:12:07.371Z,12.13
2018-12-26T16:14:33.833Z,11.17
2018-12-26T16:17:00.204Z,12.77
2018-12-26T16:19:26.560Z,11.50
2018-12-26T16:21:53.031Z,11.20
2018-12-26T16:24:19.594Z,11.97
2018-12-26T16:26:46.063Z,11.43
2018-12-26T16:29:12.572Z,11.97
2018-12-26T16:31:39.177Z,12.20
2018-12-26T16:34:05.624Z,12.40
2018-12-26T16:36:32.108Z,11.20
2018-12-26T16:38:58.561Z,11.23
2018-12-26T16:41:24.959Z,12.17
2018-12-26T16:43:51.421Z,10.33
2018-12-26T16:46:17.788Z,11.80
2018-12-26T16:48:44.345Z,10.77
2018-12-26T16:51:10.836Z,11.97
2018-12-26T16:53:37.398Z,12.23
2018-12-26T16:56:03.875Z,12.20
2018-12-26T16:58:30.371Z,10.77
2018-12-26T17:00:56.716Z,11.97
2018-12-26T17:03:23.200Z,12.60
2018-12-26T17:05:49.653Z,11.60
2018-12-26T17:08:16.128Z,12.37
2018-12-26T17:10:42.515Z,11.53
2018-12-26T17:13:08.890Z,12.00
2018-12-26T17:15:35.340Z,11.90
2018-12-26T17:18:01.812Z,12.13
2018-12-26T17:20:28.364Z,13.40
2018-12-26T17:22:54.839Z,12.57
2018-12-26T17:25:21.303Z,12.20
2018-12-26T17:27:47.774Z,15.63
2018-12-26T17:30:14.223Z,15.10
2018-12-26T17:32:40.699Z,14.33
2018-12-26T17:35:07.149Z,15.13
2018-12-26T17:37:33.605Z,16.03
2018-12-26T17:40:00.027Z,16.13
2018-12-26T17:42:26.582Z,15.77
2018-12-26T17:44:53.047Z,16.60
2018-12-26T17:47:19.499Z,17.63
2018-12-26T17:49:46.097Z,19.13
2018-12-26T17:52:12.473Z,18.53
2018-12-26T17:54:40.148Z,19.73
2018-12-26T17:57:06.524Z,19.97
2018-12-26T17:59:34.825Z,20.87
2018-12-26T18:02:03.170Z,18.10
2018-12-26T18:04:29.745Z,18.43
2018-12-26T18:06:56.218Z,17.87
2018-12-26T18:09:22.607Z,18.87
2018-12-26T18:11:51.424Z,18.40
2018-12-26T18:14:17.604Z,20.17
2018-12-26T18:16:43.967Z,19.00
2018-12-26T18:19:10.416Z,19.50
2018-12-26T18:21:36.803Z,19.07
2018-12-26T18:24:03.352Z,19.87
2018-12-26T18:26:29.829Z,17.47
2018-12-26T18:28:56.384Z,19.23
2018-12-26T18:31:23.009Z,19.10
2018-12-26T18:33:49.388Z,19.33
2018-12-26T18:36:15.860Z,19.43
2018-12-26T18:38:42.312Z,20.33
2018-12-26T18:41:08.791Z,18.90
2018-12-26T18:43:35.339Z,18.30
2018-12-26T18:46:01.821Z,18.80
2018-12-26T18:48:28.271Z,21.53
2018-12-26T18:50:54.663Z,18.27
2018-12-26T18:53:21.125Z,17.57
2018-12-26T18:55:47.696Z,19.33
2018-12-26T18:58:14.192Z,19.13
2018-12-26T19:00:40.736Z,18.33
2018-12-26T19:03:07.220Z,21.50
2018-12-26T19:05:33.664Z,19.93
2018-12-26T19:08:00.149Z,17.87
2018-12-26T19:10:27.601Z,19.17
2018-12-26T19:12:53.980Z,17.63
2018-12-26T19:15:20.562Z,18.50
2018-12-26T19:17:47.141Z,18.23
2018-12-26T19:20:13.696Z,18.57
2018-12-26T19:22:40.278Z,20.13
2018-12-26T19:25:06.723Z,17.93
2018-12-26T19:27:33.106Z,18.30
2018-12-26T19:29:59.746Z,17.60
2018-12-26T19:32:26.171Z,17.57
2018-12-26T19:34:52.625Z,17.90
2018-12-26T19:37:19.078Z,17.93
2018-12-26T19:39:45.552Z,17.20
2018-12-26T19:42:12.015Z,16.63
2018-12-26T19:44:38.481Z,16.93
2018-12-26T19:47:04.937Z,19.43
2018-12-26T19:49:31.304Z,17.83
2018-12-26T19:51:57.660Z,18.03
2018-12-26T19:54:24.129Z,17.23
2018-12-26T19:56:51.021Z,17.07
2018-12-26T19:59:17.408Z,15.77
2018-12-26T20:01:48.138Z,16.17
2018-12-26T20:04:12.224Z,15.13
2018-12-26T20:06:38.608Z,17.30
2018-12-26T20:09:05.092Z,16.43
2018-12-26T20:11:31.549Z,15.73
2018-12-26T20:13:57.948Z,16.27
2018-12-26T20:16:24.419Z,16.87
2018-12-26T20:18:50.913Z,16.07
2018-12-26T20:21:17.355Z,15.17
2018-12-26T20:23:43.703Z,15.63
2018-12-26T20:26:10.175Z,15.07
2018-12-26T20:28:36.624Z,14.63
2018-12-26T20:31:03.095Z,14.13
2018-12-26T20:33:29.547Z,13.87
2018-12-26T20:35:56.028Z,14.83
2018-12-26T20:38:22.576Z,15.83
2018-12-26T20:40:49.164Z,15.80
2018-12-26T20:43:15.618Z,16.27
2018-12-26T20:45:42.096Z,15.53
2018-12-26T20:48:08.460Z,14.47
2018-12-26T20:50:34.934Z,14.93
2018-12-26T20:53:01.379Z,14.40
2018-12-26T20:55:27.957Z,15.03
2018-12-26T20:57:54.443Z,14.50
2018-12-26T21:00:21.048Z,13.87
2018-12-26T21:02:47.503Z,15.47
2018-12-26T21:05:13.849Z,15.50
2018-12-26T21:07:40.315Z,14.00
2018-12-26T21:10:07.096Z,13.57
2018-12-26T21:12:33.564Z,14.80
2018-12-26T21:15:00.131Z,14.70
2018-12-26T21:17:26.745Z,15.90
2018-12-26T21:19:53.184Z,15.37
2018-12-26T21:22:19.665Z,14.47
2018-12-26T21:24:56.438Z,15.60
2018-12-26T21:27:23.069Z,15.03
2018-12-26T21:29:49.435Z,15.70
2018-12-26T21:32:15.908Z,14.87
2018-12-26T21:34:42.266Z,13.50
2018-12-26T21:37:08.746Z,14.27
2018-12-26T21:39:35.095Z,15.47
2018-12-26T21:42:01.579Z,16.10
2018-12-26T21:44:28.031Z,16.03
2018-12-26T21:46:54.404Z,14.07
2018-12-26T21:49:20.871Z,14.70
2018-12-26T21:51:47.324Z,14.43
2018-12-26T21:54:13.791Z,15.10
2018-12-26T21:56:40.142Z,15.47
2018-12-26T21:59:06.554Z,15.20
2018-12-26T22:01:32.935Z,14.87
2018-12-26T22:03:59.411Z,15.43
2018-12-26T22:06:25.874Z,14.90
2018-12-26T22:08:52.337Z,14.83
2018-12-26T22:11:18.796Z,16.53
2018-12-26T22:13:45.399Z,14.97
2018-12-26T22:16:11.967Z,14.03
2018-12-26T22:18:38.416Z,14.67
2018-12-26T22:21:04.987Z,13.97
2018-12-26T22:23:31.548Z,13.33
2018-12-26T22:25:58.026Z,13.20
2018-12-26T22:28:24.409Z,13.53
2018-12-26T22:30:50.877Z,14.93
2018-12-26T22:33:17.428Z,14.90
2018-12-26T22:35:43.906Z,13.47
2018-12-26T22:38:10.364Z,14.63
2018-12-26T22:40:36.844Z,14.43
2018-12-26T22:43:03.303Z,15.17
2018-12-26T22:45:30.032Z,14.30
2018-12-26T22:47:56.486Z,13.83
2018-12-26T22:50:22.956Z,14.03
2018-12-26T22:52:49.411Z,13.97
2018-12-26T22:55:15.880Z,14.43
2018-12-26T22:57:42.352Z,15.63
2018-12-26T23:00:09.064Z,14.40
2018-12-26T23:02:38.911Z,13.50
2018-12-26T23:05:03.964Z,13.40
2018-12-26T23:07:30.427Z,13.13
2018-12-26T23:09:56.995Z,13.33
2018-12-26T23:12:23.475Z,13.43
2018-12-26T23:14:49.851Z,13.07
2018-12-26T23:17:16.351Z,13.90
2018-12-26T23:19:42.815Z,13.97
2018-12-26T23:22:09.527Z,14.87
2018-12-26T23:24:35.972Z,14.10
2018-12-26T23:27:02.470Z,13.23
2018-12-26T23:29:28.928Z,13.20
2018-12-26T23:31:55.307Z,12.83
2018-12-26T23:34:21.763Z,13.17
2018-12-26T23:36:48.232Z,14.00
2018-12-26T23:39:14.687Z,12.93
2018-12-26T23:41:40.829Z,13.20
2018-12-26T23:44:07.382Z,13.83
2018-12-26T23:46:33.854Z,12.77
2018-12-26T23:49:00.315Z,12.33
2018-12-26T23:51:26.869Z,13.93
2018-12-26T23:53:53.348Z,12.77
2018-12-26T23:56:19.727Z,13.73
2018-12-26T23:58:46.236Z,13.50
